sensor_id;sensor_type;location;lat;lon;timestamp;P1;durP1;ratioP1;P2;durP2;ratioP2
9310;SDS011;4694;52.464;13.480;2023-02-28T05:45:33;13.55;;;5.97;;
9310;SDS011;4694;52.464;13.480;2023-02-28T05:48:00;17.73;;;6.20;;
9310;SDS011;4694;52.464;13.480;2023-02-28T05:50:27;20.13;;;9.30;;
9310;SDS011;4694;52.464;13.480;2023-02-28T05:52:54;19.45;;;8.82;;
9310;SDS011;4694;52.464;13.480;2023-02-28T05:55:22;18.48;;;8.55;;
9310;SDS011;4694;52.464;13.480;2023-02-28T05:57:49;20.15;;;8.70;;
9310;SDS011;4694;52.464;13.480;2023-02-28T06:00:16;20.45;;;8.90;;
9310;SDS011;4694;52.464;13.480;2023-02-28T06:02:45;13.02;;;7.88;;
9310;SDS011;4694;52.464;13.480;2023-02-28T06:05:13;18.90;;;9.38;;
9310;SDS011;4694;52.464;13.480;2023-02-28T06:07:40;19.05;;;9.10;;
9310;SDS011;4694;52.464;13.480;2023-02-28T06:10:07;20.05;;;9.20;;
9310;SDS011;4694;52.464;13.480;2023-02-28T06:12:34;19.40;;;8.98;;
9310;SDS011;4694;52.464;13.480;2023-02-28T06:15:01;15.93;;;9.50;;
9310;SDS011;4694;52.464;13.480;2023-02-28T06:17:28;21.13;;;9.88;;
9310;SDS011;4694;52.464;13.480;2023-02-28T06:19:57;17.92;;;9.40;;
9310;SDS011;4694;52.464;13.480;2023-02-28T06:22:24;23.67;;;9.18;;
9310;SDS011;4694;52.464;13.480;2023-02-28T06:24:51;19.17;;;9.35;;
9310;SDS011;4694;52.464;13.480;2023-02-28T06:27:19;19.42;;;11.32;;
9310;SDS011;4694;52.464;13.480;2023-02-28T06:29:48;17.15;;;10.27;;
9310;SDS011;4694;52.464;13.480;2023-02-28T06:32:15;18.63;;;9.98;;
9310;SDS011;4694;52.464;13.480;2023-02-28T06:34:44;24.52;;;10.48;;
9310;SDS011;4694;52.464;13.480;2023-02-28T06:37:12;18.10;;;9.18;;
9310;SDS011;4694;52.464;13.480;2023-02-28T06:39:39;18.27;;;10.43;;
9310;SDS011;4694;52.464;13.480;2023-02-28T06:42:06;17.88;;;9.40;;
9310;SDS011;4694;52.464;13.480;2023-02-28T06:44:34;15.45;;;8.98;;
9310;SDS011;4694;52.464;13.480;2023-02-28T06:47:02;27.58;;;12.73;;
9310;SDS011;4694;52.464;13.480;2023-02-28T06:49:29;24.92;;;11.25;;
9310;SDS011;4694;52.464;13.480;2023-02-28T06:51:56;19.23;;;12.95;;
9310;SDS011;4694;52.464;13.480;2023-02-28T06:54:25;17.45;;;9.90;;
9310;SDS011;4694;52.464;13.480;2023-02-28T06:56:52;18.10;;;9.75;;
9310;SDS011;4694;52.464;13.480;2023-02-28T06:59:20;16.00;;;9.30;;
9310;SDS011;4694;52.464;13.480;2023-02-28T07:01:47;21.98;;;10.80;;
9310;SDS011;4694;52.464;13.480;2023-02-28T07:04:13;18.17;;;9.57;;
9310;SDS011;4694;52.464;13.480;2023-02-28T07:06:40;14.27;;;8.00;;
9310;SDS011;4694;52.464;13.480;2023-02-28T07:09:07;17.10;;;10.43;;
9310;SDS011;4694;52.464;13.480;2023-02-28T07:11:37;18.88;;;9.45;;
9310;SDS011;4694;52.464;13.480;2023-02-28T07:14:04;16.05;;;8.45;;
9310;SDS011;4694;52.464;13.480;2023-02-28T07:16:31;20.05;;;9.70;;
9310;SDS011;4694;52.464;13.480;2023-02-28T07:18:58;19.83;;;9.38;;
9310;SDS011;4694;52.464;13.480;2023-02-28T07:21:25;19.60;;;10.43;;
9310;SDS011;4694;52.464;13.480;2023-02-28T07:23:52;19.98;;;9.90;;
9310;SDS011;4694;52.464;13.480;2023-02-28T07:26:19;18.17;;;9.13;;
9310;SDS011;4694;52.464;13.480;2023-02-28T07:28:48;17.65;;;9.55;;
9310;SDS011;4694;52.464;13.480;2023-02-28T07:31:16;15.85;;;9.30;;
9310;SDS011;4694;52.464;13.480;2023-02-28T07:33:43;23.85;;;10.75;;
9310;SDS011;4694;52.464;13.480;2023-02-28T07:36:11;18.55;;;9.20;;
9310;SDS011;4694;52.464;13.480;2023-02-28T07:38:40;16.98;;;9.30;;
9310;SDS011;4694;52.464;13.480;2023-02-28T07:41:07;21.73;;;11.50;;
9310;SDS011;4694;52.464;13.480;2023-02-28T07:43:34;17.90;;;9.65;;
9310;SDS011;4694;52.464;13.480;2023-02-28T07:46:04;17.65;;;8.77;;
9310;SDS011;4694;52.464;13.480;2023-02-28T07:48:31;16.90;;;8.43;;
9310;SDS011;4694;52.464;13.480;2023-02-28T07:50:58;12.70;;;8.10;;
9310;SDS011;4694;52.464;13.480;2023-02-28T07:53:26;12.88;;;7.50;;
9310;SDS011;4694;52.464;13.480;2023-02-28T07:55:54;13.65;;;6.78;;
9310;SDS011;4694;52.464;13.480;2023-02-28T07:58:21;13.60;;;8.27;;
9310;SDS011;4694;52.464;13.480;2023-02-28T08:00:48;13.77;;;7.25;;
9310;SDS011;4694;52.464;13.480;2023-02-28T08:03:17;10.93;;;7.05;;
9310;SDS011;4694;52.464;13.480;2023-02-28T08:05:44;9.98;;;6.15;;
9310;SDS011;4694;52.464;13.480;2023-02-28T08:08:11;10.15;;;6.22;;
9310;SDS011;4694;52.464;13.480;2023-02-28T08:10:38;8.77;;;5.50;;
9310;SDS011;4694;52.464;13.480;2023-02-28T08:13:05;9.30;;;5.68;;
9310;SDS011;4694;52.464;13.480;2023-02-28T08:15:32;7.03;;;5.25;;
9310;SDS011;4694;52.464;13.480;2023-02-28T08:17:59;16.85;;;6.20;;
9310;SDS011;4694;52.464;13.480;2023-02-28T08:20:28;8.35;;;4.57;;
9310;SDS011;4694;52.464;13.480;2023-02-28T08:22:55;8.77;;;5.50;;
9310;SDS011;4694;52.464;13.480;2023-02-28T08:25:22;7.53;;;5.55;;
9310;SDS011;4694;52.464;13.480;2023-02-28T08:27:50;6.35;;;4.88;;
9310;SDS011;4694;52.464;13.480;2023-02-28T08:30:18;6.82;;;4.13;;
9310;SDS011;4694;52.464;13.480;2023-02-28T08:32:45;11.90;;;5.43;;
9310;SDS011;4694;52.464;13.480;2023-02-28T08:35:13;9.70;;;4.70;;
9310;SDS011;4694;52.464;13.480;2023-02-28T08:37:42;7.30;;;5.50;;
9310;SDS011;4694;52.464;13.480;2023-02-28T08:40:09;8.15;;;5.88;;
9310;SDS011;4694;52.464;13.480;2023-02-28T08:42:38;8.85;;;4.90;;
9310;SDS011;4694;52.464;13.480;2023-02-28T08:45:06;10.18;;;5.57;;
9310;SDS011;4694;52.464;13.480;2023-02-28T08:47:33;15.40;;;5.55;;
9310;SDS011;4694;52.464;13.480;2023-02-28T08:50:00;7.25;;;4.85;;
9310;SDS011;4694;52.464;13.480;2023-02-28T08:52:27;6.38;;;4.75;;
9310;SDS011;4694;52.464;13.480;2023-02-28T08:54:55;7.93;;;4.50;;
9310;SDS011;4694;52.464;13.480;2023-02-28T08:57:22;5.22;;;3.10;;
9310;SDS011;4694;52.464;13.480;2023-02-28T08:59:51;5.95;;;3.47;;
9310;SDS011;4694;52.464;13.480;2023-02-28T09:02:18;10.98;;;4.18;;
9310;SDS011;4694;52.464;13.480;2023-02-28T09:04:45;8.85;;;5.13;;
9310;SDS011;4694;52.464;13.480;2023-02-28T09:07:12;7.22;;;3.30;;
9310;SDS011;4694;52.464;13.480;2023-02-28T09:09:40;5.20;;;3.25;;
9310;SDS011;4694;52.464;13.480;2023-02-28T09:12:19;3.50;;;2.22;;
9310;SDS011;4694;52.464;13.480;2023-02-28T09:14:47;3.45;;;2.10;;
9310;SDS011;4694;52.464;13.480;2023-02-28T09:17:14;4.95;;;2.65;;
9310;SDS011;4694;52.464;13.480;2023-02-28T09:19:41;3.47;;;1.95;;
9310;SDS011;4694;52.464;13.480;2023-02-28T09:22:08;3.42;;;2.00;;
9310;SDS011;4694;52.464;13.480;2023-02-28T09:24:36;4.60;;;2.40;;
9310;SDS011;4694;52.464;13.480;2023-02-28T09:27:03;4.70;;;1.77;;
9310;SDS011;4694;52.464;13.480;2023-02-28T09:29:32;1.88;;;1.60;;
9310;SDS011;4694;52.464;13.480;2023-02-28T09:31:59;5.47;;;1.92;;
9310;SDS011;4694;52.464;13.480;2023-02-28T09:34:27;3.55;;;1.33;;
9310;SDS011;4694;52.464;13.480;2023-02-28T09:36:55;2.88;;;1.40;;
9310;SDS011;4694;52.464;13.480;2023-02-28T09:39:22;3.13;;;1.77;;
9310;SDS011;4694;52.464;13.480;2023-02-28T09:41:52;1.20;;;1.10;;
9310;SDS011;4694;52.464;13.480;2023-02-28T09:44:20;3.13;;;1.20;;
9310;SDS011;4694;52.464;13.480;2023-02-28T09:46:52;4.00;;;1.88;;
9310;SDS011;4694;52.464;13.480;2023-02-28T09:49:22;2.47;;;0.80;;
9310;SDS011;4694;52.464;13.480;2023-02-28T09:51:51;3.20;;;1.27;;
9310;SDS011;4694;52.464;13.480;2023-02-28T09:54:22;2.70;;;0.88;;
9310;SDS011;4694;52.464;13.480;2023-02-28T09:56:50;2.28;;;1.60;;
9310;SDS011;4694;52.464;13.480;2023-02-28T09:59:23;5.78;;;1.50;;
9310;SDS011;4694;52.464;13.480;2023-02-28T10:01:57;2.60;;;1.90;;
9310;SDS011;4694;52.464;13.480;2023-02-28T10:04:32;5.45;;;1.42;;
9310;SDS011;4694;52.464;13.480;2023-02-28T10:07:02;2.70;;;2.22;;
9310;SDS011;4694;52.464;13.480;2023-02-28T10:09:31;4.78;;;1.27;;
9310;SDS011;4694;52.464;13.480;2023-02-28T10:12:00;1.75;;;1.30;;
9310;SDS011;4694;52.464;13.480;2023-02-28T10:14:31;4.05;;;1.58;;
9310;SDS011;4694;52.464;13.480;2023-02-28T10:17:02;3.45;;;1.80;;
9310;SDS011;4694;52.464;13.480;2023-02-28T10:19:31;3.13;;;1.40;;
9310;SDS011;4694;52.464;13.480;2023-02-28T10:22:00;2.10;;;1.47;;
9310;SDS011;4694;52.464;13.480;2023-02-28T10:24:28;4.85;;;1.80;;
9310;SDS011;4694;52.464;13.480;2023-02-28T10:26:59;5.00;;;1.58;;
9310;SDS011;4694;52.464;13.480;2023-02-28T10:29:26;3.63;;;1.55;;
9310;SDS011;4694;52.464;13.480;2023-02-28T10:31:54;2.85;;;1.92;;
9310;SDS011;4694;52.464;13.480;2023-02-28T10:34:23;1.52;;;1.20;;
9310;SDS011;4694;52.464;13.480;2023-02-28T10:36:51;1.92;;;1.05;;
9310;SDS011;4694;52.464;13.480;2023-02-28T10:39:34;3.60;;;1.40;;
9310;SDS011;4694;52.464;13.480;2023-02-28T10:42:01;3.28;;;1.30;;
9310;SDS011;4694;52.464;13.480;2023-02-28T10:44:31;4.50;;;1.50;;
9310;SDS011;4694;52.464;13.480;2023-02-28T10:46:58;3.20;;;1.35;;
9310;SDS011;4694;52.464;13.480;2023-02-28T10:49:27;1.77;;;1.38;;
9310;SDS011;4694;52.464;13.480;2023-02-28T10:51:56;2.53;;;1.80;;
9310;SDS011;4694;52.464;13.480;2023-02-28T10:54:24;4.15;;;1.75;;
9310;SDS011;4694;52.464;13.480;2023-02-28T10:57:06;1.70;;;1.60;;
9310;SDS011;4694;52.464;13.480;2023-02-28T10:59:34;2.33;;;1.58;;
9310;SDS011;4694;52.464;13.480;2023-02-28T11:02:01;2.63;;;1.60;;
9310;SDS011;4694;52.464;13.480;2023-02-28T11:04:33;3.45;;;1.90;;
9310;SDS011;4694;52.464;13.480;2023-02-28T11:07:03;5.00;;;2.67;;
9310;SDS011;4694;52.464;13.480;2023-02-28T11:09:32;4.45;;;2.58;;
9310;SDS011;4694;52.464;13.480;2023-02-28T11:12:00;2.13;;;1.75;;
9310;SDS011;4694;52.464;13.480;2023-02-28T11:14:28;3.88;;;2.72;;
9310;SDS011;4694;52.464;13.480;2023-02-28T11:16:56;3.95;;;3.13;;
9310;SDS011;4694;52.464;13.480;2023-02-28T11:19:25;3.03;;;1.60;;
9310;SDS011;4694;52.464;13.480;2023-02-28T11:21:55;2.47;;;2.05;;
9310;SDS011;4694;52.464;13.480;2023-02-28T11:24:24;1.80;;;1.55;;
9310;SDS011;4694;52.464;13.480;2023-02-28T11:26:53;5.15;;;2.67;;
9310;SDS011;4694;52.464;13.480;2023-02-28T11:29:21;3.53;;;2.47;;
9310;SDS011;4694;52.464;13.480;2023-02-28T11:32:05;2.50;;;2.30;;
9310;SDS011;4694;52.464;13.480;2023-02-28T11:34:33;2.78;;;1.80;;
9310;SDS011;4694;52.464;13.480;2023-02-28T11:37:03;3.03;;;1.98;;
9310;SDS011;4694;52.464;13.480;2023-02-28T11:39:31;4.28;;;1.98;;
9310;SDS011;4694;52.464;13.480;2023-02-28T11:42:05;5.68;;;2.22;;
9310;SDS011;4694;52.464;13.480;2023-02-28T11:44:39;3.03;;;1.95;;
9310;SDS011;4694;52.464;13.480;2023-02-28T11:47:10;3.33;;;1.75;;
9310;SDS011;4694;52.464;13.480;2023-02-28T11:49:43;2.35;;;1.92;;
9310;SDS011;4694;52.464;13.480;2023-02-28T11:52:18;3.17;;;2.33;;
9310;SDS011;4694;52.464;13.480;2023-02-28T11:54:50;5.63;;;2.88;;
9310;SDS011;4694;52.464;13.480;2023-02-28T11:57:35;2.90;;;2.63;;
9310;SDS011;4694;52.464;13.480;2023-02-28T12:00:06;2.75;;;2.10;;
9310;SDS011;4694;52.464;13.480;2023-02-28T12:02:36;2.45;;;2.25;;
9310;SDS011;4694;52.464;13.480;2023-02-28T12:05:17;4.07;;;2.72;;
9310;SDS011;4694;52.464;13.480;2023-02-28T12:07:53;2.58;;;2.38;;
9310;SDS011;4694;52.464;13.480;2023-02-28T12:10:23;3.58;;;2.60;;
9310;SDS011;4694;52.464;13.480;2023-02-28T12:12:55;3.80;;;2.53;;
9310;SDS011;4694;52.464;13.480;2023-02-28T12:15:32;3.42;;;2.55;;
9310;SDS011;4694;52.464;13.480;2023-02-28T12:18:07;4.18;;;2.30;;
9310;SDS011;4694;52.464;13.480;2023-02-28T12:20:40;2.97;;;2.53;;
9310;SDS011;4694;52.464;13.480;2023-02-28T12:23:21;3.42;;;2.53;;
9310;SDS011;4694;52.464;13.480;2023-02-28T12:25:54;3.20;;;2.63;;
9310;SDS011;4694;52.464;13.480;2023-02-28T12:28:23;2.33;;;2.03;;
9310;SDS011;4694;52.464;13.480;2023-02-28T12:30:53;2.85;;;2.10;;
9310;SDS011;4694;52.464;13.480;2023-02-28T12:33:24;3.55;;;2.35;;
9310;SDS011;4694;52.464;13.480;2023-02-28T12:35:55;3.67;;;2.65;;
9310;SDS011;4694;52.464;13.480;2023-02-28T12:38:24;2.55;;;2.17;;
9310;SDS011;4694;52.464;13.480;2023-02-28T12:40:52;4.05;;;2.15;;
9310;SDS011;4694;52.464;13.480;2023-02-28T12:43:21;3.38;;;2.30;;
9310;SDS011;4694;52.464;13.480;2023-02-28T12:45:50;3.53;;;2.35;;
9310;SDS011;4694;52.464;13.480;2023-02-28T12:48:20;2.67;;;2.08;;
9310;SDS011;4694;52.464;13.480;2023-02-28T12:50:48;5.25;;;3.42;;
9310;SDS011;4694;52.464;13.480;2023-02-28T12:53:18;3.53;;;2.80;;
9310;SDS011;4694;52.464;13.480;2023-02-28T12:55:52;2.95;;;2.33;;
9310;SDS011;4694;52.464;13.480;2023-02-28T12:58:25;2.88;;;2.20;;
9310;SDS011;4694;52.464;13.480;2023-02-28T13:01:04;2.65;;;2.28;;
9310;SDS011;4694;52.464;13.480;2023-02-28T13:03:41;3.65;;;2.35;;
9310;SDS011;4694;52.464;13.480;2023-02-28T13:06:18;3.80;;;2.13;;
9310;SDS011;4694;52.464;13.480;2023-02-28T13:11:40;3.15;;;2.50;;
9310;SDS011;4694;52.464;13.480;2023-02-28T13:14:16;4.45;;;2.65;;
9310;SDS011;4694;52.464;13.480;2023-02-28T13:16:49;3.70;;;2.28;;
9310;SDS011;4694;52.464;13.480;2023-02-28T13:19:17;5.43;;;4.88;;
9310;SDS011;4694;52.464;13.480;2023-02-28T13:21:45;2.53;;;2.25;;
9310;SDS011;4694;52.464;13.480;2023-02-28T13:24:35;2.17;;;1.92;;
9310;SDS011;4694;52.464;13.480;2023-02-28T13:29:33;2.58;;;2.28;;
9310;SDS011;4694;52.464;13.480;2023-02-28T13:32:19;5.22;;;2.33;;
9310;SDS011;4694;52.464;13.480;2023-02-28T13:35:08;3.67;;;2.38;;
9310;SDS011;4694;52.464;13.480;2023-02-28T13:37:37;5.07;;;2.63;;
9310;SDS011;4694;52.464;13.480;2023-02-28T13:40:30;3.42;;;1.98;;
9310;SDS011;4694;52.464;13.480;2023-02-28T13:43:01;6.10;;;3.15;;
9310;SDS011;4694;52.464;13.480;2023-02-28T13:45:29;2.50;;;2.30;;
9310;SDS011;4694;52.464;13.480;2023-02-28T13:48:03;2.67;;;2.47;;
9310;SDS011;4694;52.464;13.480;2023-02-28T13:50:32;3.22;;;2.30;;
9310;SDS011;4694;52.464;13.480;2023-02-28T13:53:07;3.17;;;2.88;;
9310;SDS011;4694;52.464;13.480;2023-02-28T13:55:41;2.85;;;2.55;;
9310;SDS011;4694;52.464;13.480;2023-02-28T13:58:19;5.70;;;3.40;;
9310;SDS011;4694;52.464;13.480;2023-02-28T14:01:02;3.42;;;2.67;;
9310;SDS011;4694;52.464;13.480;2023-02-28T14:03:38;4.30;;;2.60;;
9310;SDS011;4694;52.464;13.480;2023-02-28T14:06:10;3.40;;;2.88;;
9310;SDS011;4694;52.464;13.480;2023-02-28T14:08:46;4.68;;;2.90;;
9310;SDS011;4694;52.464;13.480;2023-02-28T14:11:25;3.67;;;2.70;;
9310;SDS011;4694;52.464;13.480;2023-02-28T14:13:52;2.50;;;2.30;;
9310;SDS011;4694;52.464;13.480;2023-02-28T14:16:20;2.03;;;1.92;;
9310;SDS011;4694;52.464;13.480;2023-02-28T14:18:48;4.25;;;2.63;;
9310;SDS011;4694;52.464;13.480;2023-02-28T14:21:20;2.83;;;2.53;;
9310;SDS011;4694;52.464;13.480;2023-02-28T14:23:57;5.90;;;3.53;;
9310;SDS011;4694;52.464;13.480;2023-02-28T14:26:32;4.65;;;2.60;;
9310;SDS011;4694;52.464;13.480;2023-02-28T14:29:10;3.47;;;2.60;;
9310;SDS011;4694;52.464;13.480;2023-02-28T14:31:40;2.85;;;2.47;;
9310;SDS011;4694;52.464;13.480;2023-02-28T14:36:37;3.40;;;2.40;;
9310;SDS011;4694;52.464;13.480;2023-02-28T14:39:10;4.55;;;2.38;;
9310;SDS011;4694;52.464;13.480;2023-02-28T14:41:39;3.70;;;2.28;;
9310;SDS011;4694;52.464;13.480;2023-02-28T14:44:13;8.65;;;3.80;;
9310;SDS011;4694;52.464;13.480;2023-02-28T14:46:41;4.97;;;3.03;;
9310;SDS011;4694;52.464;13.480;2023-02-28T14:49:12;3.08;;;2.35;;
9310;SDS011;4694;52.464;13.480;2023-02-28T14:51:40;3.70;;;3.05;;
9310;SDS011;4694;52.464;13.480;2023-02-28T14:54:12;3.72;;;2.03;;
9310;SDS011;4694;52.464;13.480;2023-02-28T14:56:40;4.07;;;3.33;;
9310;SDS011;4694;52.464;13.480;2023-02-28T14:59:21;6.40;;;3.60;;
9310;SDS011;4694;52.464;13.480;2023-02-28T15:01:49;9.20;;;5.32;;
9310;SDS011;4694;52.464;13.480;2023-02-28T15:04:18;4.82;;;3.53;;
9310;SDS011;4694;52.464;13.480;2023-02-28T15:09:31;7.07;;;2.97;;
9310;SDS011;4694;52.464;13.480;2023-02-28T15:11:58;3.58;;;2.97;;
9310;SDS011;4694;52.464;13.480;2023-02-28T15:14:28;3.05;;;2.33;;
9310;SDS011;4694;52.464;13.480;2023-02-28T15:16:56;4.28;;;3.28;;
9310;SDS011;4694;52.464;13.480;2023-02-28T15:19:26;3.78;;;2.97;;
9310;SDS011;4694;52.464;13.480;2023-02-28T15:21:57;6.50;;;2.90;;
9310;SDS011;4694;52.464;13.480;2023-02-28T15:24:28;5.47;;;2.67;;
9310;SDS011;4694;52.464;13.480;2023-02-28T15:27:01;4.97;;;3.55;;
9310;SDS011;4694;52.464;13.480;2023-02-28T15:29:29;5.72;;;3.13;;
9310;SDS011;4694;52.464;13.480;2023-02-28T15:32:00;5.45;;;3.47;;
9310;SDS011;4694;52.464;13.480;2023-02-28T15:34:28;6.85;;;3.13;;
9310;SDS011;4694;52.464;13.480;2023-02-28T15:36:56;3.80;;;3.08;;
9310;SDS011;4694;52.464;13.480;2023-02-28T15:39:24;2.88;;;2.25;;
9310;SDS011;4694;52.464;13.480;2023-02-28T15:41:52;3.72;;;2.40;;
9310;SDS011;4694;52.464;13.480;2023-02-28T15:44:27;3.92;;;2.50;;
9310;SDS011;4694;52.464;13.480;2023-02-28T15:47:00;3.90;;;2.60;;
9310;SDS011;4694;52.464;13.480;2023-02-28T15:49:28;12.82;;;4.35;;
9310;SDS011;4694;52.464;13.480;2023-02-28T15:51:56;5.28;;;3.25;;
9310;SDS011;4694;52.464;13.480;2023-02-28T15:54:26;6.15;;;4.15;;
9310;SDS011;4694;52.464;13.480;2023-02-28T15:56:55;10.30;;;4.43;;
9310;SDS011;4694;52.464;13.480;2023-02-28T15:59:22;5.10;;;3.45;;
9310;SDS011;4694;52.464;13.480;2023-02-28T16:02:11;4.13;;;3.05;;
9310;SDS011;4694;52.464;13.480;2023-02-28T16:04:54;11.05;;;4.05;;
9310;SDS011;4694;52.464;13.480;2023-02-28T16:07:21;7.03;;;3.08;;
9310;SDS011;4694;52.464;13.480;2023-02-28T16:09:49;3.65;;;1.77;;
9310;SDS011;4694;52.464;13.480;2023-02-28T16:12:16;5.38;;;2.70;;
9310;SDS011;4694;52.464;13.480;2023-02-28T16:14:43;4.60;;;2.38;;
9310;SDS011;4694;52.464;13.480;2023-02-28T16:17:16;3.67;;;2.47;;
9310;SDS011;4694;52.464;13.480;2023-02-28T16:19:46;3.10;;;1.85;;
9310;SDS011;4694;52.464;13.480;2023-02-28T16:22:13;4.38;;;2.38;;
9310;SDS011;4694;52.464;13.480;2023-02-28T16:24:40;8.82;;;2.80;;
9310;SDS011;4694;52.464;13.480;2023-02-28T16:27:07;4.85;;;3.00;;
9310;SDS011;4694;52.464;13.480;2023-02-28T16:29:41;7.72;;;2.53;;
9310;SDS011;4694;52.464;13.480;2023-02-28T16:32:10;5.18;;;2.15;;
9310;SDS011;4694;52.464;13.480;2023-02-28T16:34:40;4.78;;;2.42;;
9310;SDS011;4694;52.464;13.480;2023-02-28T16:37:09;5.57;;;2.60;;
9310;SDS011;4694;52.464;13.480;2023-02-28T16:39:36;6.40;;;2.72;;
9310;SDS011;4694;52.464;13.480;2023-02-28T16:42:03;5.93;;;3.53;;
9310;SDS011;4694;52.464;13.480;2023-02-28T16:44:32;6.90;;;3.03;;
9310;SDS011;4694;52.464;13.480;2023-02-28T16:47:00;8.35;;;3.63;;
9310;SDS011;4694;52.464;13.480;2023-02-28T16:49:27;5.57;;;3.67;;
9310;SDS011;4694;52.464;13.480;2023-02-28T16:51:55;7.20;;;3.33;;
9310;SDS011;4694;52.464;13.480;2023-02-28T16:54:23;17.23;;;8.85;;
9310;SDS011;4694;52.464;13.480;2023-02-28T16:56:50;10.45;;;4.65;;
9310;SDS011;4694;52.464;13.480;2023-02-28T16:59:18;6.75;;;3.65;;
9310;SDS011;4694;52.464;13.480;2023-02-28T17:01:46;11.55;;;4.68;;
9310;SDS011;4694;52.464;13.480;2023-02-28T17:04:14;8.82;;;3.40;;
9310;SDS011;4694;52.464;13.480;2023-02-28T17:06:41;7.68;;;4.35;;
9310;SDS011;4694;52.464;13.480;2023-02-28T17:09:09;6.78;;;3.75;;
9310;SDS011;4694;52.464;13.480;2023-02-28T17:11:41;4.65;;;3.70;;
9310;SDS011;4694;52.464;13.480;2023-02-28T17:14:08;7.60;;;4.60;;
9310;SDS011;4694;52.464;13.480;2023-02-28T17:16:35;5.65;;;3.88;;
9310;SDS011;4694;52.464;13.480;2023-02-28T17:19:05;6.80;;;4.37;;
9310;SDS011;4694;52.464;13.480;2023-02-28T17:21:33;9.65;;;4.32;;
9310;SDS011;4694;52.464;13.480;2023-02-28T17:24:00;8.20;;;5.47;;
9310;SDS011;4694;52.464;13.480;2023-02-28T17:26:28;9.38;;;4.63;;
9310;SDS011;4694;52.464;13.480;2023-02-28T17:28:56;6.25;;;3.10;;
9310;SDS011;4694;52.464;13.480;2023-02-28T17:31:25;10.57;;;4.97;;
9310;SDS011;4694;52.464;13.480;2023-02-28T17:33:52;7.18;;;5.55;;
9310;SDS011;4694;52.464;13.480;2023-02-28T17:36:21;8.57;;;3.90;;
9310;SDS011;4694;52.464;13.480;2023-02-28T17:38:48;6.82;;;3.63;;
9310;SDS011;4694;52.464;13.480;2023-02-28T17:41:15;19.55;;;5.45;;
9310;SDS011;4694;52.464;13.480;2023-02-28T17:43:43;7.03;;;4.03;;
9310;SDS011;4694;52.464;13.480;2023-02-28T17:46:11;9.23;;;4.38;;
9310;SDS011;4694;52.464;13.480;2023-02-28T17:48:43;11.68;;;4.82;;
9310;SDS011;4694;52.464;13.480;2023-02-28T17:51:10;10.70;;;4.00;;
9310;SDS011;4694;52.464;13.480;2023-02-28T17:53:39;12.88;;;4.93;;
9310;SDS011;4694;52.464;13.480;2023-02-28T17:56:08;7.85;;;4.57;;
9310;SDS011;4694;52.464;13.480;2023-02-28T17:58:36;14.65;;;6.55;;
9310;SDS011;4694;52.464;13.480;2023-02-28T18:01:04;7.72;;;4.78;;
9310;SDS011;4694;52.464;13.480;2023-02-28T18:03:31;12.07;;;6.50;;
9310;SDS011;4694;52.464;13.480;2023-02-28T18:05:58;8.45;;;4.10;;
9310;SDS011;4694;52.464;13.480;2023-02-28T18:08:25;10.20;;;3.78;;
9310;SDS011;4694;52.464;13.480;2023-02-28T18:10:52;13.55;;;5.53;;
9310;SDS011;4694;52.464;13.480;2023-02-28T18:13:19;9.38;;;5.65;;
9310;SDS011;4694;52.464;13.480;2023-02-28T18:15:46;14.43;;;5.22;;
9310;SDS011;4694;52.464;13.480;2023-02-28T18:18:15;13.18;;;6.55;;
9310;SDS011;4694;52.464;13.480;2023-02-28T18:20:42;11.90;;;5.30;;
9310;SDS011;4694;52.464;13.480;2023-02-28T18:23:09;17.92;;;7.07;;
9310;SDS011;4694;52.464;13.480;2023-02-28T18:25:38;18.27;;;8.10;;
9310;SDS011;4694;52.464;13.480;2023-02-28T18:28:05;7.90;;;5.22;;
9310;SDS011;4694;52.464;13.480;2023-02-28T18:30:35;15.73;;;7.85;;
9310;SDS011;4694;52.464;13.480;2023-02-28T18:33:02;15.48;;;6.85;;
9310;SDS011;4694;52.464;13.480;2023-02-28T18:35:31;15.30;;;7.43;;
9310;SDS011;4694;52.464;13.480;2023-02-28T18:38:02;16.85;;;7.90;;
9310;SDS011;4694;52.464;13.480;2023-02-28T18:40:29;11.32;;;5.50;;
9310;SDS011;4694;52.464;13.480;2023-02-28T18:42:56;13.52;;;6.20;;
9310;SDS011;4694;52.464;13.480;2023-02-28T18:45:23;13.80;;;6.47;;
9310;SDS011;4694;52.464;13.480;2023-02-28T18:47:50;16.75;;;6.82;;
9310;SDS011;4694;52.464;13.480;2023-02-28T18:50:17;16.42;;;7.70;;
9310;SDS011;4694;52.464;13.480;2023-02-28T18:52:46;14.45;;;7.40;;
9310;SDS011;4694;52.464;13.480;2023-02-28T18:55:13;21.20;;;8.38;;
9310;SDS011;4694;52.464;13.480;2023-02-28T18:57:43;16.85;;;8.25;;
9310;SDS011;4694;52.464;13.480;2023-02-28T19:00:10;15.13;;;6.95;;
9310;SDS011;4694;52.464;13.480;2023-02-28T19:02:38;13.82;;;7.72;;
9310;SDS011;4694;52.464;13.480;2023-02-28T19:05:05;14.25;;;8.40;;
9310;SDS011;4694;52.464;13.480;2023-02-28T19:07:33;16.23;;;9.23;;
9310;SDS011;4694;52.464;13.480;2023-02-28T19:10:02;17.83;;;9.25;;
9310;SDS011;4694;52.464;13.480;2023-02-28T19:12:31;19.88;;;7.72;;
9310;SDS011;4694;52.464;13.480;2023-02-28T19:14:58;19.08;;;9.95;;
9310;SDS011;4694;52.464;13.480;2023-02-28T19:17:25;22.38;;;9.52;;
9310;SDS011;4694;52.464;13.480;2023-02-28T19:19:52;14.07;;;8.52;;
9310;SDS011;4694;52.464;13.480;2023-02-28T19:22:20;19.50;;;8.27;;
9310;SDS011;4694;52.464;13.480;2023-02-28T19:24:48;19.65;;;9.43;;
9310;SDS011;4694;52.464;13.480;2023-02-28T19:27:16;18.30;;;10.85;;
9310;SDS011;4694;52.464;13.480;2023-02-28T19:29:44;18.60;;;8.35;;
9310;SDS011;4694;52.464;13.480;2023-02-28T19:32:13;16.20;;;8.85;;
9310;SDS011;4694;52.464;13.480;2023-02-28T19:34:40;14.25;;;9.30;;
9310;SDS011;4694;52.464;13.480;2023-02-28T19:37:07;17.02;;;9.38;;
9310;SDS011;4694;52.464;13.480;2023-02-28T19:39:34;14.05;;;9.38;;
9310;SDS011;4694;52.464;13.480;2023-02-28T19:42:05;16.65;;;10.75;;
9310;SDS011;4694;52.464;13.480;2023-02-28T19:44:34;22.52;;;11.07;;
9310;SDS011;4694;52.464;13.480;2023-02-28T19:47:01;21.00;;;10.35;;
9310;SDS011;4694;52.464;13.480;2023-02-28T19:49:28;20.90;;;9.82;;
9310;SDS011;4694;52.464;13.480;2023-02-28T19:51:55;22.23;;;11.07;;
9310;SDS011;4694;52.464;13.480;2023-02-28T19:54:23;18.13;;;8.65;;
9310;SDS011;4694;52.464;13.480;2023-02-28T19:56:50;19.27;;;11.60;;
9310;SDS011;4694;52.464;13.480;2023-02-28T19:59:18;19.63;;;9.82;;
9310;SDS011;4694;52.464;13.480;2023-02-28T20:01:46;22.95;;;12.43;;
9310;SDS011;4694;52.464;13.480;2023-02-28T20:04:13;21.13;;;11.13;;
9310;SDS011;4694;52.464;13.480;2023-02-28T20:06:40;21.92;;;11.52;;
9310;SDS011;4694;52.464;13.480;2023-02-28T20:09:07;22.38;;;11.20;;
9310;SDS011;4694;52.464;13.480;2023-02-28T20:11:34;20.00;;;12.40;;
9310;SDS011;4694;52.464;13.480;2023-02-28T20:14:01;19.05;;;11.65;;
9310;SDS011;4694;52.464;13.480;2023-02-28T20:16:29;21.50;;;11.68;;
9310;SDS011;4694;52.464;13.480;2023-02-28T20:19:00;21.65;;;11.27;;
9310;SDS011;4694;52.464;13.480;2023-02-28T20:21:27;25.08;;;12.80;;
9310;SDS011;4694;52.464;13.480;2023-02-28T20:23:54;24.17;;;12.35;;
9310;SDS011;4694;52.464;13.480;2023-02-28T20:26:21;25.92;;;12.20;;
